Monday, March 02, 2015
15:01 UTC
  |  Log In   |  Register Free
Airport Search:

Akron-Canton Regional Airport
(KCAK)

FAA data valid effective January 08, 2015 - March 05, 2015 (unless otherwise noted).

 
 
 
 
 
 
 
 
 
 
 
 
 
 

Current Aviation Weather for Akron-Canton Regional Airport (KCAK)

The most recent METAR observation for KCAK was updated at: 1408
METAR Summary (Translated METAR)
KCAK
021351Z 28009KT 7SM BKN033 BKN250 M06/M09 A3038 RMK AO2 SLP305 SNE28 P0000 T10611094
KAKR
021354Z AUTO 27009KT 7SM CLR M06/M09 A3038 RMK AO2 SNE1256 SLP303 P0000 T10561094 $
(7.4 nm NW from KCAK)
KPOV
021356Z AUTO 26008KT 10SM M05/M10 A3037 RMK AO2 T10551100
(19.7 nm NE from KCAK)
TAF Summary (Translated TAF)
KCAK
021130Z 0212/0312 28011KT 6SM BR SCT015 BKN035 TEMPO 0212/0215 3SM -SN BR BKN015 FM021500 29011KT P6SM BKN030 FM021900 29007KT P6SM SCT035 BKN250 FM030000 VRB03KT P6SM BKN200
  Airport Weather Conditions for KCAK

 Current Weather at CAK
21° F
Mostly Cloudy
West winds at 10.4 mph
CAK NOAA Radar

Pressure: 30.38 in
Humidity: 78%
Wind: West at 10.4 MPH (9 KT)
Dew Point: 15.1°F
Visibility: 7.00 mi


Airport Weather Forecast for KCAK

Translated METAR and TAF for KCAK
Translated METAR for KCAK (1501 UTC 02 March 2015)
found at http://aviationweather.gov/adds/metars/
 
METAR text: KCAK 021451Z 28010KT 7SM FEW014 BKN032 BKN250 M05/M09 A3041 RMK AO2 SLP314 60000 T10501089 51024
Conditions at: KCAK (AKRON , OH, US) observed 1451 UTC 02 March 2015
Temperature: -5.0°C (23°F)
Dewpoint: -8.9°C (16°F) [RH = 74%]
Pressure (altimeter): 30.41 inches Hg (1029.9 mb)
[Sea-level pressure: 1031.4 mb]
Winds: from the W (280 degrees) at 12 MPH (10 knots; 5.2 m/s)
Visibility: 7 miles (11 km)
Ceiling: 3200 feet AGL
Clouds: few clouds at 1400 feet AGL
broken clouds at 3200 feet AGL
broken clouds at 25000 feet AGL
Weather: no significant weather observed at this time
Translated TAF for KCAK
Forecast for: KCAK (AKRON , OH, US)
TAF Text: KCAK 021130Z 0212/0312 28011KT 6SM BR SCT015 BKN035
Forecast period: 1200 to 1500 UTC 02 March 2015
Forecast type: FROM: standard forecast or significant change
Winds: from the W (280 degrees) at 13 MPH (11 knots; 5.7 m/s)
Visibility: 6 miles (10 km)
Ceiling: 3500 feet AGL
Clouds: scattered clouds at 1500 feet AGL
broken clouds at 3500 feet AGL
Weather: BR  (mist)
TAF Text: TEMPO 0212/0215 3SM -SN BR BKN015
Forecast period: 1200 to 1500 UTC 02 March 2015
Forecast type: TEMPORARY: The following changes expected for less than half the time period
Visibility: 3 miles (5 km)
Ceiling: 1500 feet AGL
Clouds: broken clouds at 1500 feet AGL
Weather: -SN BR  (light snow, mist)
TAF Text: FM021500 29011KT P6SM BKN030
Forecast period: 1500 to 1900 UTC 02 March 2015
Forecast type: FROM: standard forecast or significant change
Winds: from the WNW (290 degrees) at 13 MPH (11 knots; 5.7 m/s)
Visibility: 6 or more miles (10+ km)
Ceiling: 3000 feet AGL
Clouds: broken clouds at 3000 feet AGL
Weather: no significant weather forecast for this period
TAF Text: FM021900 29007KT P6SM SCT035 BKN250
Forecast period: 1900 UTC 02 March 2015 to 0000 UTC 03 March 2015
Forecast type: FROM: standard forecast or significant change
Winds: from the WNW (290 degrees) at 8 MPH (7 knots; 3.6 m/s)
Visibility: 6 or more miles (10+ km)
Ceiling: 25000 feet AGL
Clouds: scattered clouds at 3500 feet AGL
broken clouds at 25000 feet AGL
Weather: no significant weather forecast for this period
TAF Text: FM030000 VRB03KT P6SM BKN200
Forecast period: 0000 to 1200 UTC 03 March 2015
Forecast type: FROM: standard forecast or significant change
Winds: variable direction winds at 3 MPH (3 knots; 1.6 m/s)
Visibility: 6 or more miles (10+ km)
Ceiling: 20000 feet AGL
Clouds: broken clouds at 20000 feet AGL
Weather: no significant weather forecast for this period

Find All Airport Services Find A Hotel Find A Rental Car Find A Golf Course Find A Restaurant $100 Hamburger



FBO's on the Field
FBO Company Facility Photos Services Transportation Aviation Fuel Prices: Prices include tax
Catering Weather Repair Courtesy Rental Type 100LL JetA JetA+ MOGAS 8087
 
Avflight Akron-Canton

This FBO has not yet been rated
FS:
Last Updated: Jan-22
Login to update fuel prices
SS:
Contact Avflight Akron-CantonMore FBO Information
 
McKinley Air, Inc.

Currently rated 4 by 5 people
FS:Phillips 66
Last Updated: Feb-05
Login to update fuel prices
SS:
Contact McKinley Air, Inc.More FBO Information
 
Add another FBO Facility Photos Catering Weather Repair Courtesy Rental Type 100LL JetA JetA+ MOGAS 8087
Services Transportation Aviation Fuel Prices: Prices include tax


model-print
model-print
model-print
model-print